Time,TemperatureF,DewpointF,PressureIn,WindDirection,WindDirectionDegrees,WindSpeedMPH,WindSpeedGustMPH,Humidity,HourlyPrecipIn,Conditions,Clouds,dailyrainin,SoftwareType,DateUTC
2013-09-03 00:11:00,70.1,68.6,29.61,SSW,204,0.0,1.0,95,0.00,,,0.00,VWS V14.01,2013-09-03 04:11:00,
2013-09-03 00:21:00,69.8,68.6,29.62,SSW,204,0.0,0.0,96,0.00,,,0.00,VWS V14.01,2013-09-03 04:21:00,
2013-09-03 00:31:00,69.6,68.4,29.63,SSW,204,0.0,0.0,96,0.00,,,0.00,VWS V14.01,2013-09-03 04:31:00,
2013-09-03 00:41:00,69.5,68.6,29.63,SSW,203,0.0,0.0,97,0.00,,,0.00,VWS V14.01,2013-09-03 04:41:00,
2013-09-03 00:51:00,69.4,68.5,29.63,SSW,204,0.0,1.0,97,0.00,,,0.00,VWS V14.01,2013-09-03 04:51:00,
2013-09-03 01:01:00,69.4,68.5,29.62,SSW,204,1.0,1.0,97,0.00,,,0.00,VWS V14.01,2013-09-03 05:01:00,
2013-09-03 01:11:00,69.4,68.5,29.62,SSW,203,0.0,1.0,97,0.00,,,0.00,VWS V14.01,2013-09-03 05:11:00,
2013-09-03 01:21:00,69.4,68.5,29.62,SSW,204,0.0,0.0,97,0.00,,,0.00,VWS V14.01,2013-09-03 05:21:00,
2013-09-03 01:31:00,69.4,68.5,29.62,SSW,204,0.0,0.0,97,0.00,,,0.00,VWS V14.01,2013-09-03 05:31:00,
2013-09-03 01:41:00,69.4,68.5,29.62,SSW,204,0.0,0.0,97,0.00,,,0.00,VWS V14.01,2013-09-03 05:41:00,
2013-09-03 01:51:00,69.3,68.4,29.62,SSW,204,0.0,0.0,97,0.00,,,0.00,VWS V14.01,2013-09-03 05:51:00,
2013-09-03 02:01:00,69.1,67.9,29.61,SSW,204,0.0,0.0,96,0.00,,,0.00,VWS V14.01,2013-09-03 06:01:00,
2013-09-03 02:11:00,68.8,67.9,29.61,SSW,204,0.0,1.0,97,0.00,,,0.00,VWS V14.01,2013-09-03 06:11:00,
2013-09-03 02:21:00,68.7,67.8,29.61,SSW,204,0.0,0.0,97,0.00,,,0.00,VWS V14.01,2013-09-03 06:21:00,
2013-09-03 02:31:00,68.5,67.6,29.61,SSW,204,0.0,0.0,97,0.00,,,0.00,VWS V14.01,2013-09-03 06:31:00,
2013-09-03 02:41:00,68.3,67.4,29.61,SSW,204,0.0,1.0,97,0.00,,,0.00,VWS V14.01,2013-09-03 06:41:00,
2013-09-03 02:51:00,68.3,67.4,29.60,SSW,204,0.0,0.0,97,0.00,,,0.00,VWS V14.01,2013-09-03 06:51:00,
2013-09-03 03:01:00,68.5,67.9,29.59,SSW,204,0.0,0.0,98,0.00,,,0.00,VWS V14.01,2013-09-03 07:01:00,
2013-09-03 03:11:00,68.6,68.0,29.59,SSW,204,0.0,1.0,98,0.00,,,0.00,VWS V14.01,2013-09-03 07:11:00,
2013-09-03 03:21:00,68.8,68.2,29.58,SSW,203,0.0,1.0,98,0.00,,,0.00,VWS V14.01,2013-09-03 07:21:00,
2013-09-03 03:31:00,68.8,68.2,29.58,SSW,204,0.0,0.0,98,0.00,,,0.00,VWS V14.01,2013-09-03 07:31:00,
2013-09-03 03:41:00,68.9,68.3,29.58,SSW,203,0.0,0.0,98,0.00,,,0.00,VWS V14.01,2013-09-03 07:41:00,
2013-09-03 03:51:00,68.9,68.3,29.57,SSW,203,0.0,1.0,98,0.00,,,0.00,VWS V14.01,2013-09-03 07:51:00,
2013-09-03 04:01:00,69.0,68.4,29.57,SSW,204,0.0,2.0,98,0.00,,,0.00,VWS V14.01,2013-09-03 08:01:00,
2013-09-03 04:11:00,69.0,68.4,29.57,SSW,207,0.0,2.0,98,0.00,,,0.00,VWS V14.01,2013-09-03 08:11:00,
2013-09-03 04:21:00,69.2,68.6,29.58,SSW,207,0.0,1.0,98,0.00,,,0.00,VWS V14.01,2013-09-03 08:21:00,
2013-09-03 04:31:00,69.2,68.9,29.58,SSW,207,0.0,1.0,99,0.00,,,0.00,VWS V14.01,2013-09-03 08:31:00,
2013-09-03 04:41:00,69.3,69.0,29.58,SSW,211,0.0,3.0,99,0.00,,,0.00,VWS V14.01,2013-09-03 08:41:00,
2013-09-03 04:51:00,69.4,69.1,29.58,SSW,211,0.0,1.0,99,0.00,,,0.00,VWS V14.01,2013-09-03 08:51:00,
2013-09-03 05:01:00,69.6,69.3,29.58,SSW,211,0.0,1.0,99,0.00,,,0.00,VWS V14.01,2013-09-03 09:01:00,
2013-09-03 05:11:00,69.7,69.4,29.58,SSW,211,0.0,0.0,99,0.00,,,0.00,VWS V14.01,2013-09-03 09:11:00,
2013-09-03 05:21:00,69.8,69.5,29.58,SSW,211,0.0,1.0,99,0.00,,,0.00,VWS V14.01,2013-09-03 09:21:00,
2013-09-03 05:31:00,69.9,69.6,29.59,SSW,211,0.0,0.0,99,0.00,,,0.00,VWS V14.01,2013-09-03 09:31:00,
2013-09-03 05:41:00,70.0,69.7,29.59,SSW,211,0.0,0.0,99,0.00,,,0.00,VWS V14.01,2013-09-03 09:41:00,
2013-09-03 06:01:00,70.1,69.8,29.59,SSW,211,0.0,1.0,99,0.00,,,0.00,VWS V14.01,2013-09-03 10:01:00,
2013-09-03 06:11:00,70.2,69.9,29.59,SSW,211,0.0,1.0,99,0.00,,,0.00,VWS V14.01,2013-09-03 10:11:00,
2013-09-03 06:21:00,70.3,70.0,29.59,WSW,241,0.0,1.0,99,0.00,,,0.00,VWS V14.01,2013-09-03 10:21:00,
2013-09-03 06:31:00,70.4,70.1,29.59,West,272,0.0,2.0,99,0.00,,,0.00,VWS V14.01,2013-09-03 10:31:00,
2013-09-03 06:41:00,70.6,70.3,29.59,West,269,0.0,1.0,99,0.00,,,0.00,VWS V14.01,2013-09-03 10:41:00,
2013-09-03 06:51:00,70.7,70.4,29.60,SW,235,0.0,2.0,99,0.00,,,0.00,VWS V14.01,2013-09-03 10:51:00,
2013-09-03 07:01:00,70.8,70.5,29.61,SW,235,0.0,1.0,99,0.00,,,0.00,VWS V14.01,2013-09-03 11:01:00,
2013-09-03 07:11:00,70.9,70.6,29.61,SW,235,0.0,0.0,99,0.00,,,0.00,VWS V14.01,2013-09-03 11:11:00,
2013-09-03 07:21:00,71.0,70.7,29.61,SW,235,0.0,1.0,99,0.00,,,0.00,VWS V14.01,2013-09-03 11:21:00,
2013-09-03 07:31:00,71.2,71.2,29.61,West,263,0.0,2.0,100,0.00,,,0.00,VWS V14.01,2013-09-03 11:31:00,
2013-09-03 07:41:00,71.4,71.4,29.61,West,263,1.0,1.0,100,0.00,,,0.00,VWS V14.01,2013-09-03 11:41:00,
2013-09-03 07:51:00,71.6,71.3,29.62,West,263,0.0,1.0,99,0.00,,,0.00,VWS V14.01,2013-09-03 11:51:00,
2013-09-03 08:01:00,71.9,71.9,29.62,West,277,0.0,1.0,100,0.00,,,0.00,VWS V14.01,2013-09-03 12:01:00,
2013-09-03 08:11:00,72.2,72.2,29.62,SW,227,0.0,2.0,100,0.00,,,0.00,VWS V14.01,2013-09-03 12:11:00,
2013-09-03 08:21:00,72.6,72.6,29.62,WNW,290,0.0,2.0,100,0.00,,,0.00,VWS V14.01,2013-09-03 12:21:00,
2013-09-03 08:31:00,72.7,72.7,29.63,SW,230,1.0,3.0,100,0.00,,,0.00,VWS V14.01,2013-09-03 12:31:00,
2013-09-03 08:41:00,72.9,72.9,29.63,SW,221,2.0,3.0,100,0.00,,,0.00,VWS V14.01,2013-09-03 12:41:00,
2013-09-03 08:51:00,73.1,72.8,29.63,SW,220,0.0,2.0,99,0.00,,,0.00,VWS V14.01,2013-09-03 12:51:00,
2013-09-03 09:01:00,73.1,72.8,29.65,SSW,199,3.0,5.0,99,0.02,,,0.02,VWS V14.01,2013-09-03 13:01:00,
2013-09-03 09:11:00,72.8,72.5,29.65,SW,221,1.0,5.0,99,0.12,,,0.12,VWS V14.01,2013-09-03 13:11:00,
2013-09-03 09:21:00,71.6,70.7,29.65,West,268,1.0,3.0,97,0.23,,,0.23,VWS V14.01,2013-09-03 13:21:00,
2013-09-03 09:31:00,70.0,68.8,29.64,SW,232,1.0,3.0,96,0.26,,,0.26,VWS V14.01,2013-09-03 13:31:00,
2013-09-03 09:41:00,69.5,68.9,29.64,SW,232,0.0,2.0,98,0.27,,,0.27,VWS V14.01,2013-09-03 13:41:00,
2013-09-03 09:51:00,69.2,68.6,29.64,SW,232,0.0,2.0,98,0.28,,,0.28,VWS V14.01,2013-09-03 13:51:00,
2013-09-03 10:01:00,69.1,68.8,29.64,SW,232,0.0,1.0,99,0.32,,,0.32,VWS V14.01,2013-09-03 14:01:00,
2013-09-03 10:11:00,69.2,68.9,29.64,SW,232,0.0,1.0,99,0.30,,,0.32,VWS V14.01,2013-09-03 14:11:00,
2013-09-03 10:21:00,69.3,69.0,29.63,SW,232,0.0,2.0,99,0.20,,,0.32,VWS V14.01,2013-09-03 14:21:00,
2013-09-03 10:31:00,69.5,69.2,29.63,SW,232,0.0,1.0,99,0.11,,,0.34,VWS V14.01,2013-09-03 14:31:00,
2013-09-03 10:41:00,69.6,69.3,29.63,SW,232,1.0,2.0,99,0.10,,,0.36,VWS V14.01,2013-09-03 14:41:00,
2013-09-03 10:51:00,69.4,69.1,29.62,SW,232,0.0,3.0,99,0.26,,,0.53,VWS V14.01,2013-09-03 14:51:00,
2013-09-03 11:01:00,69.4,69.1,29.62,SW,232,1.0,1.0,99,0.30,,,0.58,VWS V14.01,2013-09-03 15:01:00,
2013-09-03 11:11:00,69.5,69.2,29.62,SW,232,0.0,1.0,99,0.28,,,0.60,VWS V14.01,2013-09-03 15:11:00,
2013-09-03 11:21:00,69.6,69.3,29.62,SW,232,0.0,1.0,99,0.31,,,0.63,VWS V14.01,2013-09-03 15:21:00,
2013-09-03 11:31:00,69.9,69.9,29.62,SW,232,0.0,2.0,100,0.31,,,0.63,VWS V14.01,2013-09-03 15:31:00,
2013-09-03 11:41:00,70.5,70.5,29.62,SW,232,1.0,2.0,100,0.29,,,0.63,VWS V14.01,2013-09-03 15:41:00,
2013-09-03 11:51:00,70.8,70.8,29.62,SW,232,0.0,2.0,100,0.27,,,0.63,VWS V14.01,2013-09-03 15:51:00,
2013-09-03 12:01:00,71.2,71.2,29.61,SW,232,1.0,2.0,100,0.10,,,0.63,VWS V14.01,2013-09-03 16:01:00,
2013-09-03 12:11:00,72.1,72.1,29.61,North,5,0.0,3.0,100,0.05,,,0.63,VWS V14.01,2013-09-03 16:11:00,
2013-09-03 12:21:00,73.0,73.0,29.61,SSE,157,1.0,3.0,100,0.03,,,0.63,VWS V14.01,2013-09-03 16:21:00,
2013-09-03 12:31:00,73.4,73.4,29.61,West,260,0.0,2.0,100,0.00,,,0.63,VWS V14.01,2013-09-03 16:31:00,
2013-09-03 12:41:00,73.6,73.6,29.61,WNW,284,0.0,2.0,100,0.00,,,0.63,VWS V14.01,2013-09-03 16:41:00,
2013-09-03 12:51:00,73.5,73.5,29.61,SSW,204,1.0,3.0,100,0.00,,,0.63,VWS V14.01,2013-09-03 16:51:00,
2013-09-03 13:01:00,73.6,73.6,29.61,SSW,204,1.0,2.0,100,0.00,,,0.63,VWS V14.01,2013-09-03 17:01:00,
2013-09-03 13:11:00,73.8,73.8,29.61,SW,224,0.0,2.0,100,0.00,,,0.63,VWS V14.01,2013-09-03 17:11:00,
2013-09-03 13:21:00,74.0,74.0,29.61,WSW,249,0.0,2.0,100,0.00,,,0.63,VWS V14.01,2013-09-03 17:21:00,
2013-09-03 13:31:00,73.9,73.9,29.61,SW,236,1.0,2.0,100,0.00,,,0.63,VWS V14.01,2013-09-03 17:31:00,
2013-09-03 13:41:00,73.7,73.4,29.61,SW,235,0.0,2.0,99,0.00,,,0.63,VWS V14.01,2013-09-03 17:41:00,
2013-09-03 13:51:00,73.7,73.4,29.61,SW,235,0.0,3.0,99,0.00,,,0.63,VWS V14.01,2013-09-03 17:51:00,
2013-09-03 14:01:00,73.5,73.2,29.61,SW,235,0.0,2.0,99,0.00,,,0.63,VWS V14.01,2013-09-03 18:01:00,
2013-09-03 14:11:00,73.5,73.2,29.61,SW,235,0.0,2.0,99,0.00,,,0.63,VWS V14.01,2013-09-03 18:11:00,
2013-09-03 14:21:00,73.2,72.9,29.61,SSW,203,2.0,3.0,99,0.00,,,0.63,VWS V14.01,2013-09-03 18:21:00,
2013-09-03 14:31:00,73.1,72.8,29.61,SSW,203,0.0,2.0,99,0.00,,,0.63,VWS V14.01,2013-09-03 18:31:00,
2013-09-03 14:41:00,73.1,72.8,29.61,SSW,213,0.0,3.0,99,0.00,,,0.63,VWS V14.01,2013-09-03 18:41:00,
2013-09-03 14:51:00,73.0,72.7,29.61,SSW,198,0.0,3.0,99,0.00,,,0.63,VWS V14.01,2013-09-03 18:51:00,
2013-09-03 15:01:00,73.1,72.5,29.61,SSW,198,1.0,6.0,98,0.00,,,0.63,VWS V14.01,2013-09-03 19:01:00,
2013-09-03 15:11:00,73.3,72.4,29.61,SSW,211,3.0,5.0,97,0.00,,,0.63,VWS V14.01,2013-09-03 19:11:00,
2013-09-03 15:21:00,73.5,72.3,29.60,South,188,1.0,7.0,96,0.00,,,0.63,VWS V14.01,2013-09-03 19:21:00,
2013-09-03 15:31:00,73.9,73.0,29.60,South,190,3.0,5.0,97,0.00,,,0.63,VWS V14.01,2013-09-03 19:31:00,
2013-09-03 15:41:00,74.2,73.0,29.60,SW,218,1.0,3.0,96,0.00,,,0.63,VWS V14.01,2013-09-03 19:41:00,
2013-09-03 15:51:00,74.8,72.6,29.61,SSW,198,1.0,3.0,93,0.00,,,0.63,VWS V14.01,2013-09-03 19:51:00,
2013-09-03 16:01:00,75.3,72.8,29.61,SW,228,2.0,5.0,92,0.00,,,0.63,VWS V14.01,2013-09-03 20:01:00,
2013-09-03 16:11:00,75.2,72.4,29.61,SSW,202,1.0,6.0,91,0.00,,,0.63,VWS V14.01,2013-09-03 20:11:00,
2013-09-03 16:21:00,75.4,72.6,29.61,SW,219,2.0,6.0,91,0.00,,,0.63,VWS V14.01,2013-09-03 20:21:00,
2013-09-03 16:31:00,75.6,71.8,29.62,SW,229,2.0,5.0,88,0.00,,,0.63,VWS V14.01,2013-09-03 20:31:00,
2013-09-03 16:41:00,76.0,71.9,29.62,SSW,196,1.0,8.0,87,0.00,,,0.63,VWS V14.01,2013-09-03 20:41:00,
2013-09-03 16:51:00,76.2,71.4,29.62,SSW,194,1.0,3.0,85,0.00,,,0.63,VWS V14.01,2013-09-03 20:51:00,
2013-09-03 17:01:00,76.0,70.5,29.62,SSW,205,1.0,5.0,83,0.00,,,0.63,VWS V14.01,2013-09-03 21:01:00,
2013-09-03 17:11:00,76.0,69.8,29.62,SSW,196,2.0,9.0,81,0.00,,,0.63,VWS V14.01,2013-09-03 21:11:00,
2013-09-03 17:21:00,75.8,71.0,29.62,South,186,1.0,4.0,85,0.00,,,0.63,VWS V14.01,2013-09-03 21:21:00,
2013-09-03 17:31:00,76.4,69.8,29.62,SSW,210,1.0,6.0,80,0.00,,,0.63,VWS V14.01,2013-09-03 21:31:00,
2013-09-03 17:41:00,76.7,71.9,29.62,SSW,210,0.0,2.0,85,0.00,,,0.63,VWS V14.01,2013-09-03 21:41:00,
2013-09-03 17:51:00,76.7,72.2,29.63,South,189,0.0,4.0,86,0.00,,,0.63,VWS V14.01,2013-09-03 21:51:00,
2013-09-03 18:01:00,76.8,71.9,29.63,ESE,113,1.0,2.0,85,0.00,,,0.63,VWS V14.01,2013-09-03 22:01:00,
2013-09-03 18:11:00,76.6,72.1,29.63,ESE,117,0.0,1.0,86,0.00,,,0.63,VWS V14.01,2013-09-03 22:11:00,
2013-09-03 18:21:00,76.1,71.9,29.63,ESE,117,0.0,1.0,87,0.00,,,0.63,VWS V14.01,2013-09-03 22:21:00,
2013-09-03 18:31:00,75.7,71.6,29.64,ESE,117,0.0,0.0,87,0.00,,,0.63,VWS V14.01,2013-09-03 22:31:00,
2013-09-03 18:41:00,75.2,71.1,29.64,ESE,117,0.0,0.0,87,0.00,,,0.63,VWS V14.01,2013-09-03 22:41:00,
2013-09-03 18:51:00,74.7,70.6,29.64,ESE,117,0.0,0.0,87,0.00,,,0.63,VWS V14.01,2013-09-03 22:51:00,
2013-09-03 19:01:00,74.2,70.8,29.64,ESE,117,0.0,0.0,89,0.00,,,0.63,VWS V14.01,2013-09-03 23:01:00,
2013-09-03 19:11:00,73.8,70.4,29.64,ESE,117,0.0,0.0,89,0.00,,,0.63,VWS V14.01,2013-09-03 23:11:00,
2013-09-03 19:21:00,73.3,69.9,29.65,ESE,117,0.0,0.0,89,0.00,,,0.63,VWS V14.01,2013-09-03 23:21:00,
2013-09-03 19:31:00,72.8,69.7,29.65,ESE,117,0.0,0.0,90,0.00,,,0.63,VWS V14.01,2013-09-03 23:31:00,
2013-09-03 19:41:00,72.2,69.1,29.65,ESE,117,0.0,0.0,90,0.00,,,0.63,VWS V14.01,2013-09-03 23:41:00,
2013-09-03 19:51:00,71.5,68.4,29.65,ESE,117,0.0,1.0,90,0.00,,,0.63,VWS V14.01,2013-09-03 23:51:00,
2013-09-03 20:01:00,70.8,68.4,29.66,ESE,117,0.0,1.0,92,0.00,,,0.63,VWS V14.01,2013-09-04 00:01:00,
2013-09-03 20:11:00,70.4,68.0,29.66,ESE,117,0.0,0.0,92,0.00,,,0.63,VWS V14.01,2013-09-04 00:11:00,
2013-09-03 20:21:00,70.0,67.3,29.67,ESE,117,0.0,0.0,91,0.00,,,0.63,VWS V14.01,2013-09-04 00:21:00,
2013-09-03 20:31:00,69.6,66.5,29.67,ESE,117,0.0,0.0,90,0.00,,,0.63,VWS V14.01,2013-09-04 00:31:00,
2013-09-03 20:41:00,69.1,66.4,29.67,ESE,117,0.0,0.0,91,0.00,,,0.63,VWS V14.01,2013-09-04 00:41:00,
2013-09-03 20:51:00,68.5,65.8,29.68,ESE,117,0.0,1.0,91,0.00,,,0.63,VWS V14.01,2013-09-04 00:51:00,
2013-09-03 21:01:00,68.0,65.3,29.68,ESE,117,0.0,0.0,91,0.00,,,0.63,VWS V14.01,2013-09-04 01:01:00,
2013-09-03 21:11:00,67.6,64.9,29.68,ESE,116,0.0,0.0,91,0.00,,,0.63,VWS V14.01,2013-09-04 01:11:00,
2013-09-03 21:21:00,67.3,64.3,29.69,ENE,64,0.0,1.0,90,0.00,,,0.63,VWS V14.01,2013-09-04 01:21:00,
2013-09-03 21:31:00,67.2,64.5,29.70,ENE,64,0.0,0.0,91,0.00,,,0.63,VWS V14.01,2013-09-04 01:31:00,
2013-09-03 21:41:00,66.9,63.9,29.70,ENE,64,0.0,0.0,90,0.00,,,0.63,VWS V14.01,2013-09-04 01:41:00,
2013-09-03 21:51:00,66.7,63.7,29.70,ENE,64,0.0,1.0,90,0.00,,,0.63,VWS V14.01,2013-09-04 01:51:00,
2013-09-03 22:01:00,66.5,63.2,29.70,SSW,213,0.0,2.0,89,0.00,,,0.63,VWS V14.01,2013-09-04 02:01:00,
2013-09-03 22:11:00,66.3,62.3,29.70,SSW,202,1.0,2.0,87,0.00,,,0.63,VWS V14.01,2013-09-04 02:11:00,
2013-09-03 22:21:00,66.3,63.3,29.70,SSW,212,0.0,3.0,90,0.00,,,0.63,VWS V14.01,2013-09-04 02:21:00,
2013-09-03 22:31:00,66.3,63.3,29.71,SSW,212,0.0,1.0,90,0.00,,,0.63,VWS V14.01,2013-09-04 02:31:00,
2013-09-03 22:41:00,66.1,63.1,29.71,SE,144,0.0,1.0,90,0.00,,,0.63,VWS V14.01,2013-09-04 02:41:00,
2013-09-03 22:51:00,66.0,62.7,29.71,SE,140,0.0,1.0,89,0.00,,,0.63,VWS V14.01,2013-09-04 02:51:00,
2013-09-03 23:01:00,65.9,62.9,29.72,SE,140,0.0,2.0,90,0.00,,,0.63,VWS V14.01,2013-09-04 03:01:00,
2013-09-03 23:11:00,65.8,62.2,29.72,SE,132,0.0,2.0,88,0.00,,,0.63,VWS V14.01,2013-09-04 03:11:00,
2013-09-03 23:21:00,65.7,61.7,29.72,SSW,198,0.0,2.0,87,0.00,,,0.63,VWS V14.01,2013-09-04 03:21:00,
2013-09-03 23:31:00,65.7,61.7,29.72,South,175,0.0,3.0,87,0.00,,,0.63,VWS V14.01,2013-09-04 03:31:00,
2013-09-03 23:41:00,65.7,62.0,29.72,SW,214,0.0,3.0,88,0.00,,,0.63,VWS V14.01,2013-09-04 03:41:00,
2013-09-03 23:51:00,65.6,62.0,29.72,SSW,207,1.0,2.0,88,0.00,,,0.63,VWS V14.01,2013-09-04 03:51:00,